• METAR

    LHBP Budapest Liszt Ferenc repülőtér METAR

    LHBP 230330Z 05004KT 010V080 9999 -SN FEW023 OVC049 M02/M03 Q1019 R88/450294 NOSIG

    QNH légnyomás:1019hpa
    Hőmérséklet/temperature: -2°C
    Harmatpont/Dew Point Temp: -3°C

    LHDC Debreceni repülőtér METAR

    LHDC 222145Z 00000KT 4500 BR NSC M07/M08 Q1018

    QNH légnyomás:1018hpa
    Hőmérskélet/temperature: -7°C
    Harmatpont/Dew Point Temp: -8°C

    LHPR Győr-pér repülőtér METAR

    LHPR 230315Z AUTO VRB03KT 9999 BKN024 00/M01 Q1018 RMK WHT

    QNH légnyomás:1018hpa
    Hőmérskélet/temperature: 0°C
    Harmatpont/Dew Point Temp: -1°C

    lhsm Sármellék repülőtér METAR

    LHSM 221545Z 16007KT CAVOK 03/M03 Q1014

    QNH légnyomás:1014hpa
    Hőmérskélet/temperature: 3°C
    Harmatpont/Dew Point Temp: -3°C

    lhpp Pécs-pogány repülőtér METAR

    LHPP 221645Z 15005KT CAVOK 01/M03 Q1015

    QNH légnyomás:1015hpa
    Hőmérskélet/temperature: 1°C
    Harmatpont/Dew Point Temp: -3°C

    LHKE Kecskemét repülőtér METAR

    LHKE 230345Z 06004KT 8000 NSC M02/M03 Q1019 NOSIG RMK BLU

    QNH légnyomás:1019hpa
    Hőmérskélet/temperature: -2°C
    Harmatpont/Dew Point Temp: -3°C

    LHSN Szolnok repülőtér METAR

    LHSN 230345Z VRB02KT 5000 BR OVC060 M03/M05 Q1019 NOSIG RMK WHT

    QNH légnyomás:1019hpa
    Hőmérskélet/temperature: -3°C
    Harmatpont/Dew Point Temp: -5°C

    LHUD szeged repülőtér METAR

    LHUD 230245Z 12003KT CAVOK M00/M02 Q1019

    QNH légnyomás:1019hpa
    Hőmérskélet/temperature: 0°C
    Harmatpont/Dew Point Temp: -2°C

  • TÉRKÉPEK

    Felhőkép

    Széltérkép

    Hőtérkép

    radarkép

    map

    map

  • Műholdképek

    Magyarország műholdkép

    Europa műholdkép

    Europa szinoptikus térkép

  • ELTE ELŐREJELZÉS (2 NAP LHBP)

    2 napos légnyomás előrejelzés Budapest LHBP

    2 napos szél előrejelzés Budapest LHBP

    2 napos termik trigger előrejelzés Budapest LHBP

    2 napos felhőzet előrejelzés Budapest LHBP

    2 napos thermal index profile előrejelzés Budapest LHBP

    2 napos átlag emelés előrejelzés Budapest LHBP

    2 napos felhő alap előrejelzés Budapest LHBP

    2 napos hőmérséklet advekció előrejelzés Budapest LHBP

  • VILLÁMRADAR

  • ELŐREJELZÉS

  • WINDFINDER ELŐREJELZÉS

  • RIASZTÁS - VÉSZJELZÉS

Repülésmeteorológia, aktuális időjárási helyzet és előrejelzés

Repülésmeteorológia, várható időjárás jelentések, előrejelzések és riasztások. METAR, TAF adatok, aktuális időjárás helyzetek és térképek.

A meteorológia kialakulásában és fejlődésében kiemelt szerep jutott a repülésnek, illetve a repülés technikai fejlődésének. A repülésmeteorológia elsődlegesen a repülés biztonságát, másodlagosan a repülés gazdaságosságát hivatott szolgálni. Eleinte a katonai repülőgépeknek, később a polgári repülésnek, ma már a sportrepülő pilótáknak, és a mezőgazdasági pilótáknak is egyaránt szükségük van a naprakész meteorológiai információkra.

Repülésmeteorológia oldalunkon összegyűjtöttük a legnépszerűbb és legjobb időjárás oldalak hivatkozásait, hogy repülés előtt vagy akár közben minden fontos forrást egyszerűen és gyorsan megtalálj. Magyarország várható időjárása, légállapoti diagramok, termik előrejelzés, METAR adatok, vészjelzések és figyelmeztetések. A képernyő szélén közvetlenül pedig pozíciód aktuális időjárási paramétereit is megtalálod.

JOGI NYILATKOZAT

Az oldal használatával a látogató elfogadja az alábbi felhasználási feltételeket:

Az oldalon feltüntetett repülésmeteorológia információkat mindenki csak saját felelősségre használhatja. A feltüntetett külső forrásokból származó információk pontosságáért és tartalmáért, valamint az esetlegesen ebből adódó bármilyen káresemény kapcsán a FLYTIME.HU nem vállal felelősséget!